Terminal Aerodrome Forecast
Issued by NWS

Home | Current Version | Previous Version | Text Only | Print | Product List | Glossary On
Versions: 1 2 3 4 5 6 7 8 9 10 11 12 13 14 15 16 17 18 19 20 21
000
FTUS43 KGRR 242300
TAFLAN
TAF
KLAN 242328Z 2500/2524 30013KT 6SM -SN BR OVC006
     FM250100 29007KT 3SM -RASN BR OVC004
     FM250200 28010KT 2SM -SN BR OVC004
     FM250400 27014KT 4SM -SN BR OVC007
     FM250800 25013KT P6SM OVC012
     FM251200 24011KT 6SM BR OVC025
     FM252100 22012KT P6SM BKN035=

USA.gov is the U.S. government's official web portal to all federal, state and local government web resources and services.